QFA55 PAJN-PANC
Flight info
| Callsign | QFA55 |
|---|---|
| Flight time | 1h 29m |
| Altitude | 34000 |
| Route | ASORT3 ASORT J541 YAK J501 JOH PTERS3 |
| Aircraft | B738/M-SDE2E3FGHIRWXY/LB1 |
Departure
| Time | 2026-04-21 09:42 |
|---|---|
| Airport | Juneau International Airport (PAJN) |
Arrival
| Time | 2026-04-21 11:12 |
|---|---|
| Airport | Ted Stevens Anchorage International Airport (PANC) |
| Time | Latitude | Longitude | Altitude | Speed | Heading |
|---|---|---|---|---|---|
| 2026-04-21 09:27 | 58.35878 | -134.58474 | 30 ft | 0 kts | 103° |
| 2026-04-21 09:30 | 58.35846 | -134.58304 | 30 ft | 0 kts | 0° |
| 2026-04-21 09:33 | 58.35840 | -134.58304 | 30 ft | 3 kts | 360° |
| 2026-04-21 09:33 | 58.35816 | -134.58305 | 30 ft | 3 kts | 0° |
| 2026-04-21 09:34 | 58.35792 | -134.58305 | 30 ft | 3 kts | 355° |
| 2026-04-21 09:34 | 58.35777 | -134.58284 | 30 ft | 3 kts | 282° |
| 2026-04-21 09:34 | 58.35774 | -134.58257 | 30 ft | 0 kts | 280° |
| 2026-04-21 09:36 | 58.35774 | -134.58258 | 30 ft | 0 kts | 280° |
| 2026-04-21 09:37 | 58.35774 | -134.58276 | 30 ft | 3 kts | 256° |
| 2026-04-21 09:38 | 58.35746 | -134.58306 | 30 ft | 6 kts | 186° |
| 2026-04-21 09:38 | 58.35705 | -134.58263 | 30 ft | 8 kts | 117° |
| 2026-04-21 09:38 | 58.35684 | -134.58145 | 30 ft | 11 kts | 106° |
| 2026-04-21 09:38 | 58.35662 | -134.57984 | 30 ft | 14 kts | 104° |
| 2026-04-21 09:39 | 58.35635 | -134.57781 | 30 ft | 17 kts | 104° |
| 2026-04-21 09:39 | 58.35602 | -134.57543 | 30 ft | 20 kts | 105° |
| 2026-04-21 09:39 | 58.35564 | -134.57272 | 30 ft | 22 kts | 105° |
| 2026-04-21 09:39 | 58.35521 | -134.56975 | 30 ft | 24 kts | 105° |
| 2026-04-21 09:40 | 58.35476 | -134.56657 | 30 ft | 25 kts | 105° |
| 2026-04-21 09:40 | 58.35430 | -134.56337 | 30 ft | 25 kts | 105° |
| 2026-04-21 09:40 | 58.35387 | -134.56017 | 30 ft | 25 kts | 104° |
| 2026-04-21 09:40 | 58.35343 | -134.55706 | 30 ft | 22 kts | 105° |
| 2026-04-21 09:41 | 58.35289 | -134.55520 | 30 ft | 16 kts | 154° |
| 2026-04-21 09:41 | 58.35219 | -134.55532 | 30 ft | 6 kts | 239° |
| 2026-04-21 09:41 | 58.35217 | -134.55602 | 30 ft | 6 kts | 283° |
| 2026-04-21 09:41 | 58.35263 | -134.55942 | 30 ft | 56 kts | 285° |
| 2026-04-21 09:42 | 58.35419 | -134.57042 | 30 ft | 115 kts | 284° |
| 2026-04-21 09:42 | 58.35665 | -134.58844 | 33 ft | 164 kts | 285° |
| 2026-04-21 09:42 | 58.35957 | -134.61017 | 536 ft | 166 kts | 281° |
| 2026-04-21 09:42 | 58.36036 | -134.63169 | 1255 ft | 168 kts | 267° |
| 2026-04-21 09:43 | 58.35987 | -134.65518 | 1666 ft | 186 kts | 269° |
| 2026-04-21 09:43 | 58.35942 | -134.68098 | 2085 ft | 205 kts | 269° |
| 2026-04-21 09:43 | 58.35906 | -134.70953 | 2498 ft | 226 kts | 270° |
| 2026-04-21 09:43 | 58.35920 | -134.74062 | 3064 ft | 241 kts | 271° |
| 2026-04-21 09:44 | 58.35962 | -134.77293 | 3833 ft | 246 kts | 271° |
| 2026-04-21 09:44 | 58.35998 | -134.80579 | 4639 ft | 250 kts | 269° |
| 2026-04-21 09:44 | 58.36022 | -134.83916 | 5433 ft | 253 kts | 269° |
| 2026-04-21 09:44 | 58.36039 | -134.87275 | 6267 ft | 254 kts | 269° |
| 2026-04-21 09:45 | 58.36055 | -134.90657 | 7055 ft | 257 kts | 269° |
| 2026-04-21 09:45 | 58.36071 | -134.94068 | 7824 ft | 259 kts | 269° |
| 2026-04-21 09:45 | 58.36084 | -134.97509 | 8562 ft | 261 kts | 269° |
| 2026-04-21 09:45 | 58.36099 | -135.00979 | 9311 ft | 263 kts | 269° |
| 2026-04-21 09:46 | 58.36115 | -135.04453 | 10104 ft | 262 kts | 269° |
| 2026-04-21 09:46 | 58.36129 | -135.08052 | 10451 ft | 280 kts | 269° |
| 2026-04-21 09:46 | 58.36143 | -135.11873 | 10732 ft | 297 kts | 270° |
| 2026-04-21 09:46 | 58.36157 | -135.15879 | 11215 ft | 306 kts | 270° |
| 2026-04-21 09:47 | 58.36170 | -135.19948 | 11947 ft | 308 kts | 270° |
| 2026-04-21 09:47 | 58.36181 | -135.24021 | 12726 ft | 308 kts | 270° |
| 2026-04-21 09:47 | 58.36190 | -135.28113 | 13490 ft | 309 kts | 270° |
| 2026-04-21 09:47 | 58.36197 | -135.31805 | 14162 ft | 311 kts | 270° |
| 2026-04-21 09:48 | 58.36202 | -135.35921 | 14928 ft | 311 kts | 269° |
| 2026-04-21 09:48 | 58.36206 | -135.40054 | 15674 ft | 313 kts | 269° |
| 2026-04-21 09:48 | 58.36212 | -135.44206 | 16416 ft | 314 kts | 269° |
| 2026-04-21 09:48 | 58.36218 | -135.48374 | 17161 ft | 315 kts | 269° |
| 2026-04-21 09:49 | 58.36230 | -135.52612 | 17902 ft | 317 kts | 269° |
| 2026-04-21 09:49 | 58.36242 | -135.56822 | 18595 ft | 319 kts | 269° |
| 2026-04-21 09:49 | 58.36252 | -135.61049 | 19273 ft | 321 kts | 269° |
| 2026-04-21 09:49 | 58.36257 | -135.65316 | 19907 ft | 323 kts | 269° |
| 2026-04-21 09:50 | 58.36259 | -135.69618 | 20522 ft | 326 kts | 269° |
| 2026-04-21 09:50 | 58.36263 | -135.73953 | 21121 ft | 329 kts | 269° |
| 2026-04-21 09:50 | 58.36303 | -135.78331 | 21709 ft | 331 kts | 273° |
| 2026-04-21 09:50 | 58.36767 | -135.82656 | 22325 ft | 337 kts | 285° |
| 2026-04-21 09:51 | 58.37770 | -135.86723 | 22904 ft | 344 kts | 295° |
| 2026-04-21 09:51 | 58.39019 | -135.90660 | 23356 ft | 349 kts | 296° |
| 2026-04-21 09:51 | 58.40308 | -135.94607 | 23847 ft | 352 kts | 296° |
| 2026-04-21 09:51 | 58.41615 | -135.98582 | 24324 ft | 355 kts | 296° |
| 2026-04-21 09:52 | 58.42926 | -136.02610 | 24767 ft | 359 kts | 296° |
| 2026-04-21 09:52 | 58.44237 | -136.06683 | 25190 ft | 362 kts | 296° |
| 2026-04-21 09:52 | 58.45555 | -136.10803 | 25600 ft | 365 kts | 296° |
| 2026-04-21 09:52 | 58.46886 | -136.14962 | 26009 ft | 369 kts | 297° |
| 2026-04-21 09:53 | 58.48231 | -136.19157 | 26394 ft | 372 kts | 297° |
| 2026-04-21 09:53 | 58.49586 | -136.23391 | 26775 ft | 375 kts | 297° |
| 2026-04-21 09:53 | 58.50952 | -136.27666 | 27131 ft | 378 kts | 297° |
| 2026-04-21 09:53 | 58.52327 | -136.31975 | 27472 ft | 381 kts | 297° |
| 2026-04-21 09:54 | 58.53709 | -136.36313 | 27809 ft | 384 kts | 297° |
| 2026-04-21 09:54 | 58.55100 | -136.40693 | 28129 ft | 386 kts | 297° |
| 2026-04-21 09:54 | 58.56498 | -136.45104 | 28445 ft | 389 kts | 297° |
| 2026-04-21 09:54 | 58.57900 | -136.49533 | 28632 ft | 389 kts | 297° |
| 2026-04-21 09:55 | 58.59309 | -136.53996 | 28926 ft | 392 kts | 297° |
| 2026-04-21 09:55 | 58.60723 | -136.58484 | 29199 ft | 395 kts | 297° |
| 2026-04-21 09:55 | 58.62144 | -136.63004 | 29472 ft | 397 kts | 297° |
| 2026-04-21 09:55 | 58.63574 | -136.67556 | 29723 ft | 399 kts | 298° |
| 2026-04-21 09:56 | 58.66477 | -136.76836 | 29937 ft | 409 kts | 298° |
| 2026-04-21 09:56 | 58.67944 | -136.81533 | 30160 ft | 410 kts | 298° |
| 2026-04-21 09:56 | 58.69415 | -136.86251 | 30388 ft | 412 kts | 298° |
| 2026-04-21 09:57 | 58.70885 | -136.90978 | 30616 ft | 412 kts | 298° |
| 2026-04-21 09:57 | 58.72355 | -136.95717 | 30857 ft | 412 kts | 298° |
| 2026-04-21 09:57 | 58.73823 | -137.00460 | 31084 ft | 413 kts | 298° |
| 2026-04-21 09:57 | 58.75292 | -137.05217 | 31310 ft | 413 kts | 298° |
| 2026-04-21 09:58 | 58.76282 | -137.08427 | 31456 ft | 413 kts | 298° |
| 2026-04-21 09:58 | 58.77732 | -137.13133 | 31682 ft | 413 kts | 298° |
| 2026-04-21 09:58 | 58.79218 | -137.17971 | 31889 ft | 414 kts | 298° |
| 2026-04-21 09:58 | 58.80682 | -137.22746 | 32104 ft | 414 kts | 298° |
| 2026-04-21 09:59 | 58.82148 | -137.27534 | 32311 ft | 414 kts | 298° |
| 2026-04-21 09:59 | 58.83611 | -137.32325 | 32501 ft | 415 kts | 298° |
| 2026-04-21 09:59 | 58.85075 | -137.37131 | 32708 ft | 415 kts | 298° |
| 2026-04-21 09:59 | 58.86538 | -137.41941 | 32883 ft | 416 kts | 298° |
| 2026-04-21 10:00 | 58.88000 | -137.46758 | 33065 ft | 416 kts | 298° |
| 2026-04-21 10:00 | 58.89461 | -137.51583 | 33262 ft | 415 kts | 298° |
| 2026-04-21 10:00 | 58.90921 | -137.56411 | 33444 ft | 416 kts | 298° |
| 2026-04-21 10:00 | 58.92380 | -137.61250 | 33610 ft | 416 kts | 298° |
| 2026-04-21 10:01 | 58.93838 | -137.66093 | 33773 ft | 417 kts | 298° |
| 2026-04-21 10:01 | 58.95296 | -137.70953 | 33913 ft | 417 kts | 298° |
| 2026-04-21 10:01 | 58.96756 | -137.75832 | 34019 ft | 418 kts | 298° |
| 2026-04-21 10:01 | 58.98217 | -137.80718 | 34030 ft | 420 kts | 298° |
| 2026-04-21 10:02 | 59.02610 | -137.95449 | 34036 ft | 420 kts | 297° |
| 2026-04-21 10:03 | 59.05520 | -138.05276 | 34031 ft | 418 kts | 298° |
| 2026-04-21 10:03 | 59.08408 | -138.15065 | 34026 ft | 416 kts | 297° |
| 2026-04-21 10:04 | 59.11284 | -138.24853 | 34023 ft | 416 kts | 297° |
| 2026-04-21 10:04 | 59.14148 | -138.34644 | 34020 ft | 416 kts | 297° |
| 2026-04-21 10:05 | 59.17008 | -138.44464 | 34017 ft | 416 kts | 297° |
| 2026-04-21 10:05 | 59.19857 | -138.54287 | 34013 ft | 416 kts | 297° |
| 2026-04-21 10:06 | 59.22696 | -138.64116 | 34013 ft | 416 kts | 297° |
| 2026-04-21 10:06 | 59.25530 | -138.73970 | 34008 ft | 416 kts | 297° |
| 2026-04-21 10:07 | 59.28361 | -138.83858 | 34006 ft | 417 kts | 297° |
| 2026-04-21 10:07 | 59.31186 | -138.93765 | 34003 ft | 417 kts | 297° |
| 2026-04-21 10:08 | 59.34000 | -139.03678 | 34001 ft | 416 kts | 297° |
| 2026-04-21 10:08 | 59.36806 | -139.13607 | 33995 ft | 416 kts | 297° |
| 2026-04-21 10:09 | 59.39602 | -139.23540 | 33994 ft | 416 kts | 297° |
| 2026-04-21 10:09 | 59.42391 | -139.33496 | 33995 ft | 416 kts | 297° |
| 2026-04-21 10:10 | 59.45177 | -139.43481 | 33995 ft | 417 kts | 297° |
| 2026-04-21 10:10 | 59.47956 | -139.53494 | 33995 ft | 417 kts | 297° |
| 2026-04-21 10:11 | 59.50714 | -139.63539 | 33992 ft | 417 kts | 294° |
| 2026-04-21 10:11 | 59.52707 | -139.74248 | 33998 ft | 417 kts | 288° |
| 2026-04-21 10:12 | 59.54542 | -139.85152 | 33998 ft | 417 kts | 287° |
| 2026-04-21 10:12 | 59.56360 | -139.96025 | 33995 ft | 417 kts | 288° |
| 2026-04-21 10:13 | 59.58186 | -140.06895 | 33993 ft | 418 kts | 288° |
| 2026-04-21 10:13 | 59.59995 | -140.17784 | 33992 ft | 417 kts | 287° |
| 2026-04-21 10:14 | 59.61793 | -140.28678 | 33990 ft | 417 kts | 287° |
| 2026-04-21 10:14 | 59.63583 | -140.39574 | 33987 ft | 416 kts | 287° |
| 2026-04-21 10:15 | 59.65360 | -140.50463 | 33984 ft | 416 kts | 287° |
| 2026-04-21 10:15 | 59.67127 | -140.61359 | 33982 ft | 416 kts | 287° |
| 2026-04-21 10:16 | 59.68883 | -140.72256 | 33980 ft | 415 kts | 287° |
| 2026-04-21 10:16 | 59.70629 | -140.83152 | 33975 ft | 415 kts | 287° |
| 2026-04-21 10:17 | 59.72364 | -140.94054 | 33974 ft | 414 kts | 287° |
| 2026-04-21 10:17 | 59.74088 | -141.04952 | 33969 ft | 414 kts | 287° |
| 2026-04-21 10:18 | 59.75801 | -141.15846 | 33967 ft | 414 kts | 287° |
| 2026-04-21 10:18 | 59.77507 | -141.26766 | 33964 ft | 414 kts | 287° |
| 2026-04-21 10:19 | 59.79202 | -141.37681 | 33961 ft | 414 kts | 287° |
| 2026-04-21 10:19 | 59.80889 | -141.48623 | 33958 ft | 414 kts | 287° |
| 2026-04-21 10:20 | 59.82566 | -141.59563 | 33956 ft | 414 kts | 287° |
| 2026-04-21 10:20 | 59.84235 | -141.70526 | 33953 ft | 414 kts | 287° |
| 2026-04-21 10:21 | 59.85899 | -141.81520 | 33951 ft | 414 kts | 287° |
| 2026-04-21 10:21 | 59.87551 | -141.92509 | 33949 ft | 414 kts | 286° |
| 2026-04-21 10:22 | 59.89194 | -142.03513 | 33972 ft | 414 kts | 286° |
| 2026-04-21 10:22 | 59.90827 | -142.14520 | 33980 ft | 415 kts | 286° |
| 2026-04-21 10:23 | 59.92452 | -142.25548 | 33982 ft | 415 kts | 286° |
| 2026-04-21 10:23 | 59.94069 | -142.36595 | 33982 ft | 414 kts | 286° |
| 2026-04-21 10:24 | 59.95673 | -142.47624 | 33982 ft | 413 kts | 286° |
| 2026-04-21 10:24 | 59.97266 | -142.58655 | 33982 ft | 413 kts | 286° |
| 2026-04-21 10:25 | 59.98846 | -142.69667 | 33982 ft | 412 kts | 286° |
| 2026-04-21 10:25 | 60.00416 | -142.80679 | 33981 ft | 412 kts | 285° |
| 2026-04-21 10:26 | 60.01978 | -142.91718 | 33983 ft | 413 kts | 285° |
| 2026-04-21 10:26 | 60.03535 | -143.02792 | 33984 ft | 414 kts | 285° |
| 2026-04-21 10:27 | 60.05084 | -143.13889 | 33984 ft | 414 kts | 285° |
| 2026-04-21 10:27 | 60.06621 | -143.24976 | 33984 ft | 413 kts | 285° |
| 2026-04-21 10:28 | 60.08146 | -143.36054 | 33985 ft | 412 kts | 285° |
| 2026-04-21 10:28 | 60.09658 | -143.47115 | 33987 ft | 411 kts | 285° |
| 2026-04-21 10:29 | 60.11160 | -143.58180 | 33986 ft | 411 kts | 285° |
| 2026-04-21 10:29 | 60.12648 | -143.69219 | 33987 ft | 410 kts | 285° |
| 2026-04-21 10:30 | 60.14125 | -143.80255 | 33988 ft | 409 kts | 285° |
| 2026-04-21 10:30 | 60.15592 | -143.91293 | 33988 ft | 409 kts | 285° |
| 2026-04-21 10:31 | 60.17047 | -144.02322 | 33989 ft | 408 kts | 284° |
| 2026-04-21 10:31 | 60.18258 | -144.11562 | 33989 ft | 408 kts | 284° |
| 2026-04-21 10:32 | 60.19694 | -144.22596 | 33990 ft | 408 kts | 284° |
| 2026-04-21 10:32 | 60.21125 | -144.33663 | 33991 ft | 409 kts | 284° |
| 2026-04-21 10:33 | 60.22547 | -144.44749 | 33991 ft | 410 kts | 284° |
| 2026-04-21 10:33 | 60.23963 | -144.55866 | 33992 ft | 410 kts | 284° |
| 2026-04-21 10:34 | 60.25366 | -144.66994 | 33993 ft | 410 kts | 284° |
| 2026-04-21 10:34 | 60.26768 | -144.78138 | 33993 ft | 410 kts | 284° |
| 2026-04-21 10:35 | 60.28153 | -144.89256 | 33996 ft | 408 kts | 284° |
| 2026-04-21 10:35 | 60.29519 | -145.00323 | 33994 ft | 406 kts | 284° |
| 2026-04-21 10:36 | 60.30872 | -145.11351 | 33994 ft | 405 kts | 284° |
| 2026-04-21 10:36 | 60.32209 | -145.22364 | 33995 ft | 404 kts | 283° |
| 2026-04-21 10:37 | 60.33539 | -145.33371 | 33996 ft | 404 kts | 283° |
| 2026-04-21 10:37 | 60.34871 | -145.44460 | 33996 ft | 403 kts | 283° |
| 2026-04-21 10:38 | 60.36179 | -145.55472 | 33996 ft | 403 kts | 283° |
| 2026-04-21 10:38 | 60.37477 | -145.66469 | 33998 ft | 402 kts | 283° |
| 2026-04-21 10:39 | 60.38764 | -145.77461 | 33998 ft | 402 kts | 283° |
| 2026-04-21 10:39 | 60.40041 | -145.88461 | 34000 ft | 402 kts | 283° |
| 2026-04-21 10:40 | 60.41308 | -145.99452 | 34001 ft | 401 kts | 283° |
| 2026-04-21 10:40 | 60.42565 | -146.10448 | 34003 ft | 401 kts | 283° |
| 2026-04-21 10:41 | 60.43811 | -146.21435 | 34006 ft | 401 kts | 283° |
| 2026-04-21 10:41 | 60.45050 | -146.32448 | 34013 ft | 401 kts | 282° |
| 2026-04-21 10:42 | 60.46279 | -146.43478 | 34015 ft | 402 kts | 282° |
| 2026-04-21 10:42 | 60.47506 | -146.54544 | 34014 ft | 402 kts | 284° |
| 2026-04-21 10:43 | 60.49892 | -146.64755 | 34037 ft | 406 kts | 303° |
| 2026-04-21 10:43 | 60.53256 | -146.73992 | 34018 ft | 407 kts | 304° |
| 2026-04-21 10:44 | 60.56672 | -146.83184 | 34016 ft | 408 kts | 304° |
| 2026-04-21 10:44 | 60.60075 | -146.92513 | 34017 ft | 408 kts | 304° |
| 2026-04-21 10:45 | 60.63448 | -147.01806 | 34015 ft | 408 kts | 304° |
| 2026-04-21 10:45 | 60.66803 | -147.11132 | 34013 ft | 408 kts | 303° |
| 2026-04-21 10:46 | 60.70092 | -147.20560 | 33720 ft | 408 kts | 303° |
| 2026-04-21 10:46 | 60.71730 | -147.25240 | 33193 ft | 402 kts | 303° |
| 2026-04-21 10:46 | 60.73348 | -147.29841 | 32700 ft | 396 kts | 303° |
| 2026-04-21 10:46 | 60.74943 | -147.34383 | 32218 ft | 390 kts | 303° |
| 2026-04-21 10:47 | 60.76510 | -147.38864 | 31747 ft | 385 kts | 303° |
| 2026-04-21 10:47 | 60.78057 | -147.43309 | 31251 ft | 380 kts | 302° |
| 2026-04-21 10:47 | 60.79579 | -147.47696 | 30770 ft | 375 kts | 302° |
| 2026-04-21 10:47 | 60.81081 | -147.52027 | 30308 ft | 371 kts | 302° |
| 2026-04-21 10:48 | 60.82567 | -147.56314 | 29858 ft | 365 kts | 302° |
| 2026-04-21 10:48 | 60.84028 | -147.60537 | 29416 ft | 361 kts | 302° |
| 2026-04-21 10:48 | 60.85469 | -147.64712 | 28981 ft | 356 kts | 302° |
| 2026-04-21 10:48 | 60.86889 | -147.68833 | 28552 ft | 351 kts | 302° |
| 2026-04-21 10:49 | 60.88273 | -147.72859 | 28133 ft | 347 kts | 302° |
| 2026-04-21 10:49 | 60.89672 | -147.76936 | 27710 ft | 342 kts | 302° |
| 2026-04-21 10:49 | 60.91035 | -147.80911 | 27297 ft | 338 kts | 302° |
| 2026-04-21 10:49 | 60.92380 | -147.84842 | 26890 ft | 334 kts | 302° |
| 2026-04-21 10:50 | 60.93708 | -147.88729 | 26487 ft | 330 kts | 302° |
| 2026-04-21 10:50 | 60.95002 | -147.92524 | 26094 ft | 326 kts | 302° |
| 2026-04-21 10:50 | 60.96292 | -147.96314 | 25702 ft | 322 kts | 302° |
| 2026-04-21 10:50 | 60.97567 | -148.00066 | 25314 ft | 317 kts | 302° |
| 2026-04-21 10:51 | 60.98825 | -148.03773 | 24932 ft | 313 kts | 302° |
| 2026-04-21 10:51 | 61.00065 | -148.07433 | 24553 ft | 309 kts | 301° |
| 2026-04-21 10:51 | 61.01286 | -148.11043 | 24180 ft | 305 kts | 301° |
| 2026-04-21 10:51 | 61.02490 | -148.14606 | 23813 ft | 301 kts | 301° |
| 2026-04-21 10:52 | 61.03679 | -148.18134 | 23451 ft | 301 kts | 301° |
| 2026-04-21 10:52 | 61.04904 | -148.21785 | 23077 ft | 312 kts | 302° |
| 2026-04-21 10:52 | 61.06135 | -148.25447 | 22698 ft | 308 kts | 302° |
| 2026-04-21 10:52 | 61.07350 | -148.29057 | 22326 ft | 304 kts | 301° |
| 2026-04-21 10:53 | 61.08544 | -148.32612 | 21960 ft | 299 kts | 301° |
| 2026-04-21 10:53 | 61.09718 | -148.36123 | 21598 ft | 294 kts | 301° |
| 2026-04-21 10:53 | 61.10876 | -148.39600 | 21247 ft | 297 kts | 301° |
| 2026-04-21 10:53 | 61.12070 | -148.43195 | 20877 ft | 304 kts | 301° |
| 2026-04-21 10:54 | 61.13264 | -148.46773 | 20508 ft | 300 kts | 301° |
| 2026-04-21 10:54 | 61.14271 | -148.50527 | 20160 ft | 291 kts | 290° |
| 2026-04-21 10:54 | 61.14980 | -148.54410 | 19805 ft | 285 kts | 289° |
| 2026-04-21 10:54 | 61.15663 | -148.58251 | 19460 ft | 286 kts | 289° |
| 2026-04-21 10:55 | 61.16354 | -148.62199 | 19103 ft | 294 kts | 288° |
| 2026-04-21 10:55 | 61.17047 | -148.66161 | 18747 ft | 292 kts | 288° |
| 2026-04-21 10:55 | 61.17738 | -148.70099 | 18393 ft | 290 kts | 288° |
| 2026-04-21 10:55 | 61.18425 | -148.74015 | 18041 ft | 288 kts | 288° |
| 2026-04-21 10:56 | 61.19106 | -148.77903 | 17692 ft | 287 kts | 288° |
| 2026-04-21 10:56 | 61.19783 | -148.81779 | 17349 ft | 285 kts | 288° |
| 2026-04-21 10:56 | 61.20456 | -148.85646 | 17008 ft | 284 kts | 288° |
| 2026-04-21 10:56 | 61.21122 | -148.89482 | 16686 ft | 282 kts | 288° |
| 2026-04-21 10:57 | 61.21786 | -148.93319 | 16349 ft | 283 kts | 288° |
| 2026-04-21 10:57 | 61.22449 | -148.97162 | 16007 ft | 283 kts | 288° |
| 2026-04-21 10:57 | 61.23113 | -149.01011 | 15667 ft | 283 kts | 288° |
| 2026-04-21 10:57 | 61.23776 | -149.04850 | 15321 ft | 283 kts | 288° |
| 2026-04-21 10:58 | 61.24364 | -149.08732 | 14988 ft | 281 kts | 280° |
| 2026-04-21 10:58 | 61.24644 | -149.12736 | 14654 ft | 280 kts | 277° |
| 2026-04-21 10:58 | 61.24894 | -149.16742 | 14313 ft | 279 kts | 277° |
| 2026-04-21 10:58 | 61.25134 | -149.20745 | 13981 ft | 279 kts | 277° |
| 2026-04-21 10:59 | 61.25371 | -149.24742 | 13651 ft | 279 kts | 277° |
| 2026-04-21 10:59 | 61.25609 | -149.28748 | 13324 ft | 280 kts | 277° |
| 2026-04-21 10:59 | 61.25846 | -149.32760 | 12981 ft | 280 kts | 276° |
| 2026-04-21 10:59 | 61.26084 | -149.36773 | 12643 ft | 280 kts | 276° |
| 2026-04-21 11:00 | 61.26322 | -149.40777 | 12307 ft | 278 kts | 276° |
| 2026-04-21 11:00 | 61.26557 | -149.44742 | 11972 ft | 276 kts | 276° |
| 2026-04-21 11:00 | 61.26788 | -149.48698 | 11638 ft | 276 kts | 276° |
| 2026-04-21 11:00 | 61.27014 | -149.52651 | 11302 ft | 276 kts | 276° |
| 2026-04-21 11:01 | 61.27238 | -149.56622 | 10968 ft | 277 kts | 276° |
| 2026-04-21 11:01 | 61.27463 | -149.60608 | 10637 ft | 278 kts | 275° |
| 2026-04-21 11:01 | 61.27694 | -149.64671 | 10298 ft | 281 kts | 275° |
| 2026-04-21 11:02 | 61.28451 | -149.72449 | 10043 ft | 270 kts | 294° |
| 2026-04-21 11:02 | 61.29376 | -149.75837 | 9807 ft | 271 kts | 298° |
| 2026-04-21 11:02 | 61.30353 | -149.79210 | 9489 ft | 274 kts | 299° |
| 2026-04-21 11:02 | 61.31351 | -149.82600 | 9177 ft | 276 kts | 299° |
| 2026-04-21 11:03 | 61.32361 | -149.86027 | 8866 ft | 279 kts | 299° |
| 2026-04-21 11:03 | 61.33375 | -149.89480 | 8576 ft | 280 kts | 299° |
| 2026-04-21 11:03 | 61.34395 | -149.92834 | 8513 ft | 269 kts | 306° |
| 2026-04-21 11:03 | 61.35251 | -149.94686 | 8453 ft | 267 kts | 319° |
| 2026-04-21 11:04 | 61.36864 | -149.96610 | 8265 ft | 269 kts | 340° |
| 2026-04-21 11:04 | 61.38665 | -149.97733 | 8043 ft | 270 kts | 342° |
| 2026-04-21 11:04 | 61.40470 | -149.98823 | 7842 ft | 267 kts | 342° |
| 2026-04-21 11:04 | 61.42197 | -149.99899 | 7761 ft | 252 kts | 341° |
| 2026-04-21 11:05 | 61.43834 | -150.00939 | 7586 ft | 242 kts | 341° |
| 2026-04-21 11:05 | 61.45341 | -150.02398 | 7190 ft | 238 kts | 315° |
| 2026-04-21 11:05 | 61.46248 | -150.05182 | 6845 ft | 232 kts | 281° |
| 2026-04-21 11:05 | 61.46263 | -150.08442 | 6710 ft | 223 kts | 249° |
| 2026-04-21 11:06 | 61.45434 | -150.11065 | 6609 ft | 214 kts | 218° |
| 2026-04-21 11:06 | 61.44250 | -150.12904 | 6254 ft | 212 kts | 208° |
| 2026-04-21 11:06 | 61.42832 | -150.13892 | 5678 ft | 221 kts | 185° |
| 2026-04-21 11:06 | 61.41283 | -150.13543 | 5081 ft | 230 kts | 167° |
| 2026-04-21 11:07 | 61.39698 | -150.12635 | 4422 ft | 241 kts | 165° |
| 2026-04-21 11:07 | 61.38086 | -150.11694 | 4038 ft | 239 kts | 165° |
| 2026-04-21 11:07 | 61.36479 | -150.10778 | 3716 ft | 234 kts | 166° |
| 2026-04-21 11:07 | 61.34935 | -150.09902 | 3387 ft | 224 kts | 165° |
| 2026-04-21 11:08 | 61.33474 | -150.09074 | 3082 ft | 214 kts | 165° |
| 2026-04-21 11:08 | 61.32062 | -150.08275 | 2791 ft | 203 kts | 165° |
| 2026-04-21 11:08 | 61.30756 | -150.07536 | 2499 ft | 185 kts | 166° |
| 2026-04-21 11:08 | 61.29557 | -150.06857 | 2249 ft | 172 kts | 165° |
| 2026-04-21 11:09 | 61.28462 | -150.06249 | 2018 ft | 156 kts | 166° |
| 2026-04-21 11:09 | 61.27438 | -150.05686 | 1747 ft | 148 kts | 165° |
| 2026-04-21 11:09 | 61.26479 | -150.05168 | 1531 ft | 138 kts | 166° |
| 2026-04-21 11:09 | 61.25565 | -150.04656 | 1296 ft | 135 kts | 164° |
| 2026-04-21 11:10 | 61.24640 | -150.04096 | 1150 ft | 143 kts | 164° |
| 2026-04-21 11:10 | 61.23682 | -150.03549 | 1094 ft | 140 kts | 165° |
| 2026-04-21 11:10 | 61.22747 | -150.03053 | 863 ft | 138 kts | 167° |
| 2026-04-21 11:10 | 61.21820 | -150.02524 | 659 ft | 140 kts | 164° |
| 2026-04-21 11:11 | 61.20886 | -150.01971 | 444 ft | 138 kts | 165° |
| 2026-04-21 11:11 | 61.19978 | -150.01459 | 209 ft | 133 kts | 167° |
| 2026-04-21 11:11 | 61.19143 | -150.00985 | 162 ft | 101 kts | 168° |
| 2026-04-21 11:11 | 61.18666 | -150.00727 | 161 ft | 55 kts | 166° |
| 2026-04-21 11:12 | 61.18343 | -150.00536 | 161 ft | 43 kts | 166° |
| 2026-04-21 11:12 | 61.18090 | -150.00398 | 161 ft | 33 kts | 163° |
| 2026-04-21 11:12 | 61.17904 | -150.00223 | 161 ft | 25 kts | 147° |
| 2026-04-21 11:12 | 61.17806 | -150.00057 | 161 ft | 14 kts | 135° |
| 2026-04-21 11:13 | 61.17736 | -149.99913 | 161 ft | 14 kts | 135° |
| 2026-04-21 11:13 | 61.17672 | -149.99754 | 161 ft | 15 kts | 99° |
| 2026-04-21 11:13 | 61.17676 | -149.99530 | 161 ft | 16 kts | 104° |
| 2026-04-21 11:13 | 61.17639 | -149.99380 | 161 ft | 9 kts | 105° |
| 2026-04-21 11:14 | 61.17646 | -149.99275 | 161 ft | 7 kts | 72° |
| 2026-04-21 11:14 | 61.17650 | -149.99125 | 161 ft | 11 kts | 111° |
| 2026-04-21 11:14 | 61.17662 | -149.98989 | 161 ft | 9 kts | 70° |
| 2026-04-21 11:14 | 61.17691 | -149.98831 | 161 ft | 13 kts | 72° |
| 2026-04-21 11:15 | 61.17685 | -149.98646 | 161 ft | 13 kts | 134° |
| 2026-04-21 11:15 | 61.17631 | -149.98602 | 161 ft | 6 kts | 169° |
| 2026-04-21 11:15 | 61.17600 | -149.98590 | 161 ft | 6 kts | 169° |
| 2026-04-21 11:15 | 61.17580 | -149.98533 | 161 ft | 4 kts | 109° |
| 2026-04-21 11:16 | 61.17574 | -149.98488 | 161 ft | 2 kts | 105° |
| 2026-04-21 11:16 | 61.17573 | -149.98485 | 161 ft | 0 kts | 105° |